Time;durP1;ratioP1;P1;durP2;ratioP2;P2;SDS_P1;SDS_P2;PMS_P1;PMS_P2;Temp;Humidity;BMP_temperature;BMP_pressure;BME280_temperature;BME280_humidity;BME280_pressure;Samples;Min_cycle;Max_cycle;Signal;HPM_P1;HPM_P2
2020/12/19 00:00:48;;;;;;;26.37;21.00;;;;;;;;;;5055645;28;20250;-61
2020/12/19 00:03:13;;;;;;;29.67;22.30;;;;;;;;;;5055403;28;20236;-61
2020/12/19 00:05:39;;;;;;;46.23;36.40;;;;;;;;;;5055606;28;20229;-61
2020/12/19 00:08:04;;;;;;;44.33;34.17;;;;;;;;;;5055146;28;20220;-60
2020/12/19 00:10:29;;;;;;;46.63;34.47;;;;;;;;;;5055124;28;20229;-60
2020/12/19 00:12:59;;;;;;;43.53;33.20;;;;;;;;;;5054343;28;20234;-61
2020/12/19 00:15:25;;;;;;;53.13;36.10;;;;;;;;;;5055566;28;20218;-60
2020/12/19 00:17:50;;;;;;;56.67;36.83;;;;;;;;;;5054767;28;20484;-60
2020/12/19 00:20:16;;;;;;;54.13;35.63;;;;;;;;;;5054789;28;20249;-61
2020/12/19 00:22:43;;;;;;;47.03;32.23;;;;;;;;;;5053499;28;20212;-61
2020/12/19 00:25:08;;;;;;;43.80;31.27;;;;;;;;;;5046581;28;20665;-61
2020/12/19 00:27:33;;;;;;;40.10;28.47;;;;;;;;;;5035913;28;20545;-61
2020/12/19 00:29:58;;;;;;;45.33;30.90;;;;;;;;;;5035327;28;20580;-61
2020/12/19 00:32:24;;;;;;;46.50;33.07;;;;;;;;;;5034534;28;20243;-60
2020/12/19 00:34:49;;;;;;;48.63;32.07;;;;;;;;;;5052392;28;20220;-60
2020/12/19 00:37:14;;;;;;;47.27;34.00;;;;;;;;;;5054991;28;20243;-62
2020/12/19 00:39:40;;;;;;;51.43;35.43;;;;;;;;;;5054553;28;20309;-61
2020/12/19 00:42:05;;;;;;;31.63;22.47;;;;;;;;;;5054611;28;20217;-61
2020/12/19 00:44:31;;;;;;;33.17;25.07;;;;;;;;;;5055502;28;20217;-60
2020/12/19 00:46:56;;;;;;;31.20;20.37;;;;;;;;;;5055618;28;20369;-61
2020/12/19 00:49:21;;;;;;;20.93;15.20;;;;;;;;;;5054802;28;20678;-60
2020/12/19 00:51:46;;;;;;;27.63;17.83;;;;;;;;;;5055238;28;20221;-60
2020/12/19 00:54:12;;;;;;;21.50;15.83;;;;;;;;;;5054784;28;20257;-61
2020/12/19 00:56:37;;;;;;;22.70;15.03;;;;;;;;;;5055291;28;20670;-61
2020/12/19 00:59:02;;;;;;;21.57;14.00;;;;;;;;;;5048444;28;20202;-61
2020/12/19 01:01:28;;;;;;;25.30;17.77;;;;;;;;;;5035076;28;20213;-61
2020/12/19 01:03:57;;;;;;;25.00;19.60;;;;;;;;;;5034196;28;20225;-61
2020/12/19 01:06:23;;;;;;;25.17;19.37;;;;;;;;;;5035035;28;20206;-61
2020/12/19 01:08:51;;;;;;;21.80;17.33;;;;;;;;;;5035374;28;20454;-62
2020/12/19 01:11:17;;;;;;;26.30;19.97;;;;;;;;;;5034532;28;20912;-60
2020/12/19 01:13:44;;;;;;;29.63;19.80;;;;;;;;;;5055329;28;20445;-61
2020/12/19 01:16:17;;;;;;;23.60;15.37;;;;;;;;;;5054491;28;20522;-60
2020/12/19 01:18:43;;;;;;;18.30;14.13;;;;;;;;;;5054889;28;20483;-61
2020/12/19 01:21:12;;;;;;;25.83;15.73;;;;;;;;;;5054496;28;20455;-60
2020/12/19 01:23:38;;;;;;;26.23;17.13;;;;;;;;;;5047377;28;20460;-60
2020/12/19 01:26:03;;;;;;;21.60;14.63;;;;;;;;;;5034863;28;20543;-60
2020/12/19 01:28:28;;;;;;;18.93;13.30;;;;;;;;;;5035765;28;20218;-60
2020/12/19 01:30:54;;;;;;;17.83;13.03;;;;;;;;;;5038818;28;20234;-60
2020/12/19 01:33:19;;;;;;;18.37;14.30;;;;;;;;;;5038387;28;20232;-60
2020/12/19 01:35:45;;;;;;;25.60;16.43;;;;;;;;;;5038876;28;20297;-61
2020/12/19 01:38:10;;;;;;;21.43;13.87;;;;;;;;;;5038204;28;20686;-61
2020/12/19 01:40:35;;;;;;;22.53;13.43;;;;;;;;;;5038855;28;20218;-61
2020/12/19 01:43:03;;;;;;;22.33;15.53;;;;;;;;;;5037407;28;20373;-61
2020/12/19 01:45:28;;;;;;;17.73;13.73;;;;;;;;;;5038325;28;20210;-61
2020/12/19 01:47:54;;;;;;;18.97;14.17;;;;;;;;;;5038383;28;20461;-61
2020/12/19 01:50:20;;;;;;;21.10;13.97;;;;;;;;;;5038025;28;20222;-61
2020/12/19 01:52:45;;;;;;;17.37;12.93;;;;;;;;;;5038055;28;20957;-61
2020/12/19 01:55:10;;;;;;;19.40;14.07;;;;;;;;;;5037950;28;20213;-61
2020/12/19 01:57:39;;;;;;;18.13;13.53;;;;;;;;;;5038313;28;20690;-61
2020/12/19 02:00:04;;;;;;;18.00;14.03;;;;;;;;;;5037988;28;20283;-61
2020/12/19 02:02:30;;;;;;;18.30;13.20;;;;;;;;;;5038124;28;20465;-61
2020/12/19 02:04:55;;;;;;;17.67;13.10;;;;;;;;;;5038119;28;20301;-61
2020/12/19 02:07:21;;;;;;;18.10;13.13;;;;;;;;;;5037820;28;20310;-61
2020/12/19 02:09:46;;;;;;;16.93;12.27;;;;;;;;;;5038244;28;20238;-61
2020/12/19 02:12:12;;;;;;;16.33;14.20;;;;;;;;;;5046590;28;20227;-60
2020/12/19 02:14:37;;;;;;;16.30;12.53;;;;;;;;;;5058408;28;20334;-60
2020/12/19 02:17:05;;;;;;;15.40;12.47;;;;;;;;;;5057790;28;20225;-60
2020/12/19 02:19:32;;;;;;;18.20;12.50;;;;;;;;;;5057856;28;20220;-61
2020/12/19 02:21:57;;;;;;;17.60;12.27;;;;;;;;;;5056898;28;20475;-61
2020/12/19 02:24:23;;;;;;;19.43;12.43;;;;;;;;;;5044101;28;20826;-61
2020/12/19 02:26:50;;;;;;;16.17;11.90;;;;;;;;;;5038004;28;20214;-61
2020/12/19 02:29:15;;;;;;;18.67;13.10;;;;;;;;;;5037421;28;20567;-60
2020/12/19 02:31:41;;;;;;;17.17;13.03;;;;;;;;;;5037526;28;20545;-61
2020/12/19 02:34:07;;;;;;;19.27;14.20;;;;;;;;;;5037449;28;20241;-61
2020/12/19 02:36:32;;;;;;;20.63;13.73;;;;;;;;;;5037696;28;20453;-61
2020/12/19 02:38:57;;;;;;;21.53;14.50;;;;;;;;;;5037587;28;20226;-60
2020/12/19 02:41:22;;;;;;;26.73;14.67;;;;;;;;;;5036509;28;20686;-61
2020/12/19 02:43:57;;;;;;;15.00;12.40;;;;;;;;;;5037626;28;20305;-60
2020/12/19 02:46:23;;;;;;;18.33;14.20;;;;;;;;;;5037040;28;20217;-60
2020/12/19 02:48:48;;;;;;;18.27;13.73;;;;;;;;;;5037251;28;20526;-61
2020/12/19 02:51:14;;;;;;;19.03;13.50;;;;;;;;;;5036801;28;20221;-60
2020/12/19 02:53:39;;;;;;;15.20;12.80;;;;;;;;;;5037082;28;20229;-60
2020/12/19 02:56:05;;;;;;;18.60;12.13;;;;;;;;;;5036925;28;20691;-61
2020/12/19 02:58:30;;;;;;;19.00;13.03;;;;;;;;;;5037199;28;20207;-61
2020/12/19 03:00:55;;;;;;;17.33;11.70;;;;;;;;;;5037047;28;20538;-60
2020/12/19 03:03:21;;;;;;;16.90;12.77;;;;;;;;;;5036659;28;20218;-60
2020/12/19 03:05:46;;;;;;;17.77;12.93;;;;;;;;;;5037122;28;20210;-60
2020/12/19 03:08:11;;;;;;;19.80;13.13;;;;;;;;;;5037198;28;20282;-60
2020/12/19 03:10:36;;;;;;;16.20;11.40;;;;;;;;;;5037258;28;20226;-60
2020/12/19 03:13:02;;;;;;;20.13;11.73;;;;;;;;;;5052838;28;20304;-61
2020/12/19 03:15:28;;;;;;;17.33;11.70;;;;;;;;;;5056888;28;20205;-61
2020/12/19 03:17:53;;;;;;;15.60;12.10;;;;;;;;;;5056935;28;20229;-61
2020/12/19 03:20:18;;;;;;;17.13;12.07;;;;;;;;;;5056934;28;20456;-61
2020/12/19 03:22:44;;;;;;;16.17;11.80;;;;;;;;;;5057290;28;20209;-61
2020/12/19 03:25:09;;;;;;;15.10;11.73;;;;;;;;;;5036931;28;20305;-61
2020/12/19 03:27:34;;;;;;;14.63;11.80;;;;;;;;;;5036810;28;20278;-61
2020/12/19 03:29:59;;;;;;;17.37;11.87;;;;;;;;;;5037302;28;20309;-61
2020/12/19 03:32:25;;;;;;;18.27;12.47;;;;;;;;;;5036442;28;20562;-61
2020/12/19 03:34:50;;;;;;;18.27;13.60;;;;;;;;;;5036803;28;20304;-61
2020/12/19 03:37:15;;;;;;;20.03;11.80;;;;;;;;;;5036197;28;20225;-61
2020/12/19 03:39:40;;;;;;;18.70;13.40;;;;;;;;;;5036697;28;20217;-60
2020/12/19 03:42:06;;;;;;;18.10;11.90;;;;;;;;;;5035481;28;20654;-60
2020/12/19 03:44:31;;;;;;;19.40;12.10;;;;;;;;;;5036231;28;20347;-60
2020/12/19 03:46:56;;;;;;;13.70;10.50;;;;;;;;;;5036519;28;20222;-60
2020/12/19 03:49:21;;;;;;;17.83;11.90;;;;;;;;;;5036019;28;20297;-60
2020/12/19 03:51:47;;;;;;;15.17;11.70;;;;;;;;;;5035267;28;20535;-60
2020/12/19 03:54:12;;;;;;;16.30;11.63;;;;;;;;;;5035347;28;20305;-60
2020/12/19 03:56:37;;;;;;;15.80;12.50;;;;;;;;;;5036229;28;20227;-60
2020/12/19 03:59:02;;;;;;;13.07;10.73;;;;;;;;;;5036096;28;20303;-60
2020/12/19 04:01:28;;;;;;;16.10;10.97;;;;;;;;;;5035537;28;20230;-59
2020/12/19 04:03:53;;;;;;;15.83;11.20;;;;;;;;;;5033550;28;20225;-60
2020/12/19 04:06:18;;;;;;;14.40;10.77;;;;;;;;;;5035544;28;20749;-61
2020/12/19 04:08:43;;;;;;;13.43;11.23;;;;;;;;;;5058419;28;20305;-60
2020/12/19 04:11:09;;;;;;;14.67;11.70;;;;;;;;;;5067039;28;20226;-59
2020/12/19 04:13:34;;;;;;;16.07;11.90;;;;;;;;;;5068756;28;20249;-59
2020/12/19 04:15:59;;;;;;;16.57;10.80;;;;;;;;;;5065658;28;20231;-59
2020/12/19 04:18:25;;;;;;;16.97;10.43;;;;;;;;;;5061730;28;20331;-60
2020/12/19 04:20:51;;;;;;;19.07;13.30;;;;;;;;;;5065441;28;20308;-59
2020/12/19 04:23:16;;;;;;;17.37;12.47;;;;;;;;;;5069370;28;20543;-59
2020/12/19 04:25:41;;;;;;;24.97;14.30;;;;;;;;;;5065682;28;20228;-59
2020/12/19 04:28:06;;;;;;;19.53;14.50;;;;;;;;;;5068659;28;20227;-60
2020/12/19 04:30:32;;;;;;;17.97;11.87;;;;;;;;;;5063918;28;20725;-60
2020/12/19 04:32:57;;;;;;;15.57;12.80;;;;;;;;;;5060563;28;20233;-60
2020/12/19 04:35:22;;;;;;;18.50;13.80;;;;;;;;;;5065137;28;20305;-60
2020/12/19 04:37:47;;;;;;;20.50;12.27;;;;;;;;;;5057338;28;20225;-60
2020/12/19 04:40:13;;;;;;;17.50;13.17;;;;;;;;;;5066806;28;20297;-59
2020/12/19 04:42:38;;;;;;;15.90;11.37;;;;;;;;;;5068835;28;20721;-60
2020/12/19 04:45:04;;;;;;;18.17;11.60;;;;;;;;;;5056846;28;20679;-60
2020/12/19 04:47:29;;;;;;;15.83;11.47;;;;;;;;;;5068327;28;20221;-60
2020/12/19 04:49:57;;;;;;;16.23;11.77;;;;;;;;;;5061808;28;20515;-60
2020/12/19 04:52:22;;;;;;;14.90;10.93;;;;;;;;;;5062048;28;20232;-60
2020/12/19 04:54:48;;;;;;;17.00;11.90;;;;;;;;;;5068432;28;20799;-60
2020/12/19 04:57:17;;;;;;;16.47;11.23;;;;;;;;;;5067122;28;20466;-60
2020/12/19 04:59:43;;;;;;;17.33;11.00;;;;;;;;;;5048112;28;20216;-60
2020/12/19 05:02:08;;;;;;;12.87;10.40;;;;;;;;;;5061695;28;20482;-59
2020/12/19 05:04:37;;;;;;;16.43;11.97;;;;;;;;;;5052492;28;20225;-60
2020/12/19 05:07:06;;;;;;;16.47;11.43;;;;;;;;;;5070045;28;20600;-60
2020/12/19 05:09:35;;;;;;;18.80;11.70;;;;;;;;;;5069630;28;20472;-60
2020/12/19 05:12:01;;;;;;;17.50;12.00;;;;;;;;;;5064476;28;20466;-61
2020/12/19 05:14:29;;;;;;;18.60;12.10;;;;;;;;;;5067482;28;20947;-59
2020/12/19 05:16:55;;;;;;;17.23;12.23;;;;;;;;;;5071923;28;20490;-60
2020/12/19 05:19:21;;;;;;;16.03;11.77;;;;;;;;;;5068397;28;20466;-59
2020/12/19 05:21:46;;;;;;;17.80;11.93;;;;;;;;;;5065111;28;20220;-59
2020/12/19 05:24:15;;;;;;;14.87;10.30;;;;;;;;;;5075830;28;20544;-60
2020/12/19 05:26:42;;;;;;;18.03;13.03;;;;;;;;;;5064436;28;20310;-60
2020/12/19 05:29:07;;;;;;;13.10;10.70;;;;;;;;;;5068963;28;20494;-60
2020/12/19 05:31:33;;;;;;;14.37;10.50;;;;;;;;;;5071258;28;20803;-59
2020/12/19 05:33:59;;;;;;;14.80;10.60;;;;;;;;;;5067290;28;20676;-60
2020/12/19 05:36:28;;;;;;;19.13;12.60;;;;;;;;;;5074530;28;20462;-61
2020/12/19 05:38:58;;;;;;;17.87;11.03;;;;;;;;;;5067760;28;20227;-60
2020/12/19 05:41:23;;;;;;;19.30;12.23;;;;;;;;;;5064444;28;20459;-60
2020/12/19 05:43:52;;;;;;;15.80;12.07;;;;;;;;;;5068108;28;20460;-60
2020/12/19 05:46:38;;;;;;;12.70;10.30;;;;;;;;;;5071009;28;20279;-61
2020/12/19 05:49:06;;;;;;;15.00;11.20;;;;;;;;;;5070425;28;20847;-60
2020/12/19 05:51:33;;;;;;;14.37;11.20;;;;;;;;;;5064145;28;20462;-60
2020/12/19 05:54:09;;;;;;;19.17;11.63;;;;;;;;;;5065423;28;20492;-61
2020/12/19 05:56:48;;;;;;;16.40;11.33;;;;;;;;;;5052754;28;20461;-60
2020/12/19 05:59:14;;;;;;;15.73;10.20;;;;;;;;;;5064715;28;20463;-60
2020/12/19 06:01:42;;;;;;;13.93;9.93;;;;;;;;;;5068370;28;20523;-60
2020/12/19 06:04:10;;;;;;;14.17;10.57;;;;;;;;;;5067553;28;20457;-60
2020/12/19 06:06:43;;;;;;;16.57;11.50;;;;;;;;;;5064365;28;20767;-60
2020/12/19 06:09:12;;;;;;;15.20;12.57;;;;;;;;;;5066545;28;20495;-61
2020/12/19 06:11:53;;;;;;;14.93;10.77;;;;;;;;;;5075637;28;20532;-60
2020/12/19 06:14:21;;;;;;;19.10;12.07;;;;;;;;;;5064520;28;20979;-60
2020/12/19 06:16:49;;;;;;;17.30;10.77;;;;;;;;;;5069077;28;20501;-60
2020/12/19 06:19:19;;;;;;;17.07;12.80;;;;;;;;;;5070957;28;20459;-60
2020/12/19 06:21:55;;;;;;;17.07;12.07;;;;;;;;;;5065789;28;20463;-61
2020/12/19 06:24:40;;;;;;;17.23;11.60;;;;;;;;;;5063973;28;20477;-60
2020/12/19 06:27:18;;;;;;;17.77;11.30;;;;;;;;;;5065325;28;20539;-61
2020/12/19 06:29:44;;;;;;;16.13;11.73;;;;;;;;;;5051318;28;20455;-61
2020/12/19 06:32:21;;;;;;;16.87;11.57;;;;;;;;;;5063700;28;20478;-60
2020/12/19 06:35:01;;;;;;;16.70;12.33;;;;;;;;;;5053921;28;20548;-60
2020/12/19 06:37:27;;;;;;;35.23;19.43;;;;;;;;;;5063429;28;20457;-59
2020/12/19 06:40:19;;;;;;;49.37;27.70;;;;;;;;;;5067281;28;20464;-60
2020/12/19 06:42:46;;;;;;;22.00;15.33;;;;;;;;;;5041045;28;20570;-59
2020/12/19 06:45:30;;;;;;;16.97;12.07;;;;;;;;;;5069826;28;20485;-60
2020/12/19 06:47:57;;;;;;;19.90;13.43;;;;;;;;;;5053394;28;20954;-61
2020/12/19 06:50:24;;;;;;;16.70;11.37;;;;;;;;;;5063839;28;20516;-60
2020/12/19 06:53:00;;;;;;;16.30;11.90;;;;;;;;;;5068548;28;20499;-59
2020/12/19 06:55:29;;;;;;;22.37;14.40;;;;;;;;;;5070868;28;20470;-60
2020/12/19 06:57:56;;;;;;;16.10;11.33;;;;;;;;;;5066427;28;20965;-60
2020/12/19 07:00:22;;;;;;;15.57;11.80;;;;;;;;;;5063769;28;20819;-62
2020/12/19 07:02:59;;;;;;;14.40;11.03;;;;;;;;;;5066909;28;20467;-59
2020/12/19 07:05:27;;;;;;;17.60;12.37;;;;;;;;;;5065665;28;20479;-60
2020/12/19 07:07:53;;;;;;;16.23;12.50;;;;;;;;;;5069830;28;20938;-60
2020/12/19 07:10:35;;;;;;;16.97;11.63;;;;;;;;;;5064425;28;20459;-60
2020/12/19 07:13:01;;;;;;;16.03;11.60;;;;;;;;;;5072458;28;20221;-61
2020/12/19 07:15:46;;;;;;;17.30;11.93;;;;;;;;;;5067094;28;20462;-61
2020/12/19 07:18:38;;;;;;;18.47;11.87;;;;;;;;;;5062653;28;20224;-61
2020/12/19 07:21:09;;;;;;;15.83;10.70;;;;;;;;;;5062593;28;20463;-60
2020/12/19 07:23:39;;;;;;;16.87;12.63;;;;;;;;;;5066409;28;20525;-61
2020/12/19 07:26:05;;;;;;;15.30;11.40;;;;;;;;;;5070189;28;20978;-60
2020/12/19 07:28:30;;;;;;;18.30;12.40;;;;;;;;;;5067432;28;20490;-60
2020/12/19 07:30:56;;;;;;;16.50;12.67;;;;;;;;;;5062663;28;20459;-60
2020/12/19 07:33:21;;;;;;;16.80;12.40;;;;;;;;;;5059893;28;20256;-60
2020/12/19 07:35:47;;;;;;;17.00;12.53;;;;;;;;;;5065500;28;20225;-59
2020/12/19 07:38:12;;;;;;;14.13;11.27;;;;;;;;;;5065857;28;20224;-60
2020/12/19 07:40:38;;;;;;;16.30;12.00;;;;;;;;;;5062949;28;20734;-60
2020/12/19 07:43:05;;;;;;;18.73;13.43;;;;;;;;;;5067143;28;20217;-60
2020/12/19 07:45:31;;;;;;;19.47;13.53;;;;;;;;;;5069961;28;20265;-60
2020/12/19 07:47:56;;;;;;;16.83;12.07;;;;;;;;;;5064380;28;20981;-60
2020/12/19 07:50:26;;;;;;;18.70;14.27;;;;;;;;;;5062090;28;20224;-59
2020/12/19 07:53:07;;;;;;;15.13;11.37;;;;;;;;;;5067055;28;20226;-59
2020/12/19 07:55:34;;;;;;;17.43;13.50;;;;;;;;;;5069488;28;20465;-61
2020/12/19 07:58:02;;;;;;;15.00;11.60;;;;;;;;;;5066707;28;20473;-61
2020/12/19 08:00:27;;;;;;;16.73;11.70;;;;;;;;;;5062240;28;20455;-60
2020/12/19 08:02:53;;;;;;;21.10;12.43;;;;;;;;;;5064400;28;20452;-60
2020/12/19 08:05:18;;;;;;;15.80;11.80;;;;;;;;;;5066526;28;20217;-60
2020/12/19 08:07:44;;;;;;;15.80;12.53;;;;;;;;;;5069168;28;20326;-60
2020/12/19 08:10:11;;;;;;;19.20;12.00;;;;;;;;;;5062873;28;20620;-60
2020/12/19 08:12:39;;;;;;;17.33;12.40;;;;;;;;;;5075587;28;20220;-60
2020/12/19 08:15:10;;;;;;;15.40;11.77;;;;;;;;;;5061905;28;20478;-59
2020/12/19 08:17:46;;;;;;;15.27;12.00;;;;;;;;;;5061426;28;20479;-60
2020/12/19 08:20:12;;;;;;;17.67;11.10;;;;;;;;;;5066318;28;20458;-61
2020/12/19 08:22:37;;;;;;;16.43;12.17;;;;;;;;;;5051416;28;20462;-60
2020/12/19 08:25:03;;;;;;;16.27;11.60;;;;;;;;;;5064355;28;20357;-61
2020/12/19 08:27:32;;;;;;;15.13;11.50;;;;;;;;;;5061892;28;20566;-61
2020/12/19 08:30:04;;;;;;;17.37;12.57;;;;;;;;;;5065732;28;20228;-61
2020/12/19 08:32:30;;;;;;;17.30;12.27;;;;;;;;;;5068621;28;20471;-60
2020/12/19 08:34:56;;;;;;;14.40;11.47;;;;;;;;;;5056176;28;20462;-60
2020/12/19 08:37:21;;;;;;;16.07;11.90;;;;;;;;;;5062528;28;20465;-60
2020/12/19 08:40:04;;;;;;;17.60;13.10;;;;;;;;;;5069199;28;20694;-60
2020/12/19 08:42:30;;;;;;;18.20;12.00;;;;;;;;;;5074174;28;20529;-60
2020/12/19 08:45:15;;;;;;;15.13;11.90;;;;;;;;;;5074236;28;20455;-60
2020/12/19 08:47:40;;;;;;;18.90;13.30;;;;;;;;;;5058991;28;20460;-61
2020/12/19 08:50:05;;;;;;;17.47;12.33;;;;;;;;;;5067986;28;20467;-61
2020/12/19 08:52:31;;;;;;;18.57;13.37;;;;;;;;;;5072698;28;20231;-61
2020/12/19 08:54:58;;;;;;;15.70;11.80;;;;;;;;;;5074639;28;20700;-60
2020/12/19 08:57:31;;;;;;;14.93;11.30;;;;;;;;;;5070500;28;20557;-60
2020/12/19 09:00:15;;;;;;;15.57;12.77;;;;;;;;;;5067844;28;20459;-60
2020/12/19 09:02:44;;;;;;;22.27;11.63;;;;;;;;;;5069192;28;20523;-60
2020/12/19 09:05:10;;;;;;;17.40;12.63;;;;;;;;;;5062838;28;20464;-60
2020/12/19 09:07:35;;;;;;;14.40;11.40;;;;;;;;;;5073386;28;20470;-60
2020/12/19 09:10:21;;;;;;;13.53;11.83;;;;;;;;;;5068074;28;20917;-60
2020/12/19 09:12:46;;;;;;;16.57;11.47;;;;;;;;;;5079069;28;20660;-60
2020/12/19 09:15:17;;;;;;;16.63;12.77;;;;;;;;;;5069697;28;20473;-60
2020/12/19 09:17:42;;;;;;;19.43;14.30;;;;;;;;;;5067712;28;20233;-60
2020/12/19 09:20:07;;;;;;;17.23;12.53;;;;;;;;;;5073313;28;20987;-60
2020/12/19 09:22:33;;;;;;;15.00;11.90;;;;;;;;;;5074647;28;20224;-61
2020/12/19 09:24:58;;;;;;;16.50;12.20;;;;;;;;;;5069163;28;20299;-60
2020/12/19 09:27:24;;;;;;;19.23;13.10;;;;;;;;;;5068115;28;20227;-60
2020/12/19 09:29:50;;;;;;;13.23;11.50;;;;;;;;;;5073022;28;20474;-60
2020/12/19 09:32:15;;;;;;;15.17;10.83;;;;;;;;;;5075267;28;20580;-60
2020/12/19 09:34:40;;;;;;;15.10;12.20;;;;;;;;;;5058265;28;20296;-60
2020/12/19 09:37:06;;;;;;;18.00;12.60;;;;;;;;;;5068362;28;20228;-60
2020/12/19 09:39:31;;;;;;;15.30;11.17;;;;;;;;;;5074736;28;20665;-60
2020/12/19 09:41:56;;;;;;;16.33;11.17;;;;;;;;;;5074381;28;20234;-60
2020/12/19 09:44:22;;;;;;;15.13;11.50;;;;;;;;;;5050814;28;20228;-60
2020/12/19 09:46:47;;;;;;;23.43;14.70;;;;;;;;;;5065145;28;20216;-60
2020/12/19 09:49:12;;;;;;;28.43;17.57;;;;;;;;;;5069779;28;20304;-60
2020/12/19 09:51:37;;;;;;;23.00;15.33;;;;;;;;;;5064196;28;20355;-60
2020/12/19 09:54:03;;;;;;;18.00;12.43;;;;;;;;;;5072061;28;20244;-61
2020/12/19 09:56:28;;;;;;;15.50;11.40;;;;;;;;;;5070375;28;20216;-60
2020/12/19 09:58:53;;;;;;;17.63;13.40;;;;;;;;;;5063797;28;20224;-61
2020/12/19 10:01:20;;;;;;;14.40;12.27;;;;;;;;;;5066827;28;20307;-62
2020/12/19 10:03:45;;;;;;;14.20;10.90;;;;;;;;;;5073082;28;20276;-60
2020/12/19 10:06:13;;;;;;;14.50;10.50;;;;;;;;;;5064296;28;20452;-60
2020/12/19 10:08:39;;;;;;;15.00;10.90;;;;;;;;;;5069755;28;20598;-60
2020/12/19 10:11:04;;;;;;;16.50;11.33;;;;;;;;;;5071097;28;20489;-59
2020/12/19 10:13:29;;;;;;;12.17;9.40;;;;;;;;;;5069962;28;20309;-60
2020/12/19 10:15:54;;;;;;;13.87;9.50;;;;;;;;;;5070054;28;20720;-61
2020/12/19 10:18:20;;;;;;;11.30;9.30;;;;;;;;;;5064676;28;20300;-60
2020/12/19 10:20:45;;;;;;;13.50;10.47;;;;;;;;;;5063130;28;20253;-60
2020/12/19 10:23:10;;;;;;;14.83;10.27;;;;;;;;;;5069935;28;20310;-61
2020/12/19 10:25:35;;;;;;;15.73;11.23;;;;;;;;;;5070320;28;20252;-61
2020/12/19 10:28:01;;;;;;;14.30;12.00;;;;;;;;;;5063538;28;20301;-60
2020/12/19 10:30:26;;;;;;;10.20;9.13;;;;;;;;;;5063885;28;20232;-60
2020/12/19 10:32:51;;;;;;;12.77;9.50;;;;;;;;;;5066319;28;20564;-60
2020/12/19 10:35:16;;;;;;;11.43;9.27;;;;;;;;;;5062555;28;20307;-60
2020/12/19 10:37:42;;;;;;;13.60;10.00;;;;;;;;;;5062543;28;20672;-61
2020/12/19 10:40:07;;;;;;;15.30;11.17;;;;;;;;;;5063994;28;20216;-59
2020/12/19 10:42:32;;;;;;;11.03;9.93;;;;;;;;;;5070014;28;20312;-61
2020/12/19 10:44:58;;;;;;;12.50;10.17;;;;;;;;;;5067919;28;20220;-61
2020/12/19 10:47:23;;;;;;;17.03;10.20;;;;;;;;;;5062335;28;20667;-61
2020/12/19 10:49:51;;;;;;;9.47;8.37;;;;;;;;;;5063240;28;20241;-60
2020/12/19 10:52:16;;;;;;;13.97;10.57;;;;;;;;;;5069253;28;20234;-60
2020/12/19 10:54:42;;;;;;;11.03;9.90;;;;;;;;;;5067676;28;20475;-61
2020/12/19 10:57:07;;;;;;;10.60;9.03;;;;;;;;;;5062472;28;20220;-61
2020/12/19 10:59:32;;;;;;;11.40;9.70;;;;;;;;;;5064368;28;20227;-61
2020/12/19 11:01:57;;;;;;;11.80;9.23;;;;;;;;;;5062916;28;20696;-61
2020/12/19 11:04:23;;;;;;;13.57;9.73;;;;;;;;;;5066485;28;20225;-61
2020/12/19 11:06:49;;;;;;;10.57;9.47;;;;;;;;;;5054283;28;20223;-60
2020/12/19 11:09:14;;;;;;;13.17;11.07;;;;;;;;;;5060746;28;20223;-62
2020/12/19 11:11:40;;;;;;;10.47;9.13;;;;;;;;;;5059891;28;20454;-61
2020/12/19 11:14:05;;;;;;;11.17;10.00;;;;;;;;;;5063832;28;20316;-61
2020/12/19 11:16:31;;;;;;;12.87;9.77;;;;;;;;;;5052248;28;20579;-61
2020/12/19 11:18:57;;;;;;;11.13;9.93;;;;;;;;;;5063913;28;20225;-61
2020/12/19 11:21:23;;;;;;;11.83;9.50;;;;;;;;;;5059749;28;20257;-61
2020/12/19 11:23:48;;;;;;;11.17;10.07;;;;;;;;;;5061343;28;20432;-59
2020/12/19 11:26:13;;;;;;;15.40;11.10;;;;;;;;;;5059429;28;20469;-61
2020/12/19 11:28:39;;;;;;;11.93;9.90;;;;;;;;;;5058459;28;20221;-61
2020/12/19 11:31:07;;;;;;;11.80;10.50;;;;;;;;;;5067029;28;20225;-61
2020/12/19 11:33:33;;;;;;;13.47;11.03;;;;;;;;;;5056622;28;20225;-61
2020/12/19 11:35:59;;;;;;;13.27;10.00;;;;;;;;;;5063791;28;20460;-61
2020/12/19 11:38:25;;;;;;;10.57;9.47;;;;;;;;;;5059532;28;20290;-61
2020/12/19 11:40:50;;;;;;;12.30;9.30;;;;;;;;;;5055448;28;20559;-61
2020/12/19 11:43:15;;;;;;;11.23;9.40;;;;;;;;;;5057487;28;20237;-60
2020/12/19 11:45:40;;;;;;;12.53;9.43;;;;;;;;;;5056989;28;20310;-61
2020/12/19 11:48:06;;;;;;;13.50;11.03;;;;;;;;;;5065505;28;20230;-61
2020/12/19 11:50:31;;;;;;;13.37;9.53;;;;;;;;;;5058364;28;20626;-60
2020/12/19 11:52:56;;;;;;;12.50;9.80;;;;;;;;;;5062911;28;20253;-61
2020/12/19 11:55:21;;;;;;;13.90;10.13;;;;;;;;;;5061285;28;20313;-61
2020/12/19 11:57:47;;;;;;;13.33;10.50;;;;;;;;;;5057121;28;20238;-61
2020/12/19 12:00:12;;;;;;;14.10;11.07;;;;;;;;;;5057121;28;20300;-61
2020/12/19 12:02:37;;;;;;;13.60;10.43;;;;;;;;;;5066953;28;20525;-61
2020/12/19 12:05:03;;;;;;;11.80;10.60;;;;;;;;;;5063536;28;20299;-60
2020/12/19 12:07:28;;;;;;;12.43;9.53;;;;;;;;;;5065498;28;20220;-62
2020/12/19 12:09:53;;;;;;;11.07;9.83;;;;;;;;;;5056424;28;20336;-61
2020/12/19 12:12:18;;;;;;;12.17;9.60;;;;;;;;;;5065231;28;20308;-62
2020/12/19 12:14:44;;;;;;;13.47;9.47;;;;;;;;;;5059927;28;20282;-61
2020/12/19 12:17:09;;;;;;;12.87;11.13;;;;;;;;;;5054358;28;20691;-61
2020/12/19 12:19:34;;;;;;;11.80;10.00;;;;;;;;;;5067245;28;20228;-60
2020/12/19 12:22:00;;;;;;;10.40;8.80;;;;;;;;;;5053671;28;20238;-63
2020/12/19 12:24:25;;;;;;;13.60;10.13;;;;;;;;;;5060870;28;20347;-61
2020/12/19 12:26:50;;;;;;;11.30;9.60;;;;;;;;;;5063566;28;20221;-61
2020/12/19 12:29:15;;;;;;;11.90;10.70;;;;;;;;;;5068130;28;20740;-61
2020/12/19 12:31:41;;;;;;;15.00;10.83;;;;;;;;;;5064351;28;20228;-61
2020/12/19 12:34:07;;;;;;;12.23;10.20;;;;;;;;;;5059965;28;20243;-61
2020/12/19 12:36:32;;;;;;;10.97;9.30;;;;;;;;;;5064509;28;20840;-61
2020/12/19 12:38:58;;;;;;;10.13;8.77;;;;;;;;;;5066979;28;20221;-61
2020/12/19 12:41:24;;;;;;;12.30;10.00;;;;;;;;;;5063730;28;20653;-61
2020/12/19 12:43:49;;;;;;;13.00;11.30;;;;;;;;;;5055696;28;20500;-62
2020/12/19 12:46:16;;;;;;;11.03;9.33;;;;;;;;;;5067331;28;20433;-61
2020/12/19 12:48:42;;;;;;;12.40;9.80;;;;;;;;;;5060551;28;20241;-60
2020/12/19 12:51:08;;;;;;;11.20;9.13;;;;;;;;;;5064444;28;20474;-61
2020/12/19 12:53:34;;;;;;;11.80;9.17;;;;;;;;;;5067084;28;20223;-62
2020/12/19 12:55:59;;;;;;;11.93;10.00;;;;;;;;;;5062891;28;20451;-61
2020/12/19 12:58:25;;;;;;;11.10;9.10;;;;;;;;;;5060265;28;20236;-61
2020/12/19 13:00:50;;;;;;;10.70;9.60;;;;;;;;;;5064610;28;20286;-61
2020/12/19 13:03:15;;;;;;;10.93;9.83;;;;;;;;;;5068883;28;20221;-61
2020/12/19 13:05:41;;;;;;;9.93;8.90;;;;;;;;;;5047792;28;20309;-61
2020/12/19 13:08:06;;;;;;;12.03;9.63;;;;;;;;;;5063323;28;20248;-60
2020/12/19 13:10:31;;;;;;;11.23;9.20;;;;;;;;;;5053877;28;20300;-61
2020/12/19 13:12:56;;;;;;;10.90;8.57;;;;;;;;;;5066380;28;20683;-60
2020/12/19 13:15:22;;;;;;;13.70;9.57;;;;;;;;;;5063308;28;20316;-61
2020/12/19 13:17:47;;;;;;;14.33;9.40;;;;;;;;;;5042654;28;20245;-61
2020/12/19 13:20:12;;;;;;;11.97;9.17;;;;;;;;;;5062397;28;20225;-61
2020/12/19 13:22:38;;;;;;;11.20;8.00;;;;;;;;;;5062254;28;20715;-60
2020/12/19 13:25:03;;;;;;;11.20;9.30;;;;;;;;;;5064168;28;20225;-60
2020/12/19 13:27:28;;;;;;;11.87;9.03;;;;;;;;;;5058875;28;20557;-61
2020/12/19 13:29:54;;;;;;;11.70;9.53;;;;;;;;;;5063098;28;20302;-60
2020/12/19 13:32:19;;;;;;;10.17;9.20;;;;;;;;;;5061718;28;20678;-61
2020/12/19 13:34:44;;;;;;;15.07;10.27;;;;;;;;;;5065293;28;20282;-61
2020/12/19 13:37:09;;;;;;;13.30;10.03;;;;;;;;;;5071823;28;20220;-60
2020/12/19 13:39:36;;;;;;;11.20;9.63;;;;;;;;;;5064779;28;20318;-61
2020/12/19 13:42:01;;;;;;;10.77;8.97;;;;;;;;;;5062838;28;20228;-61
2020/12/19 13:44:26;;;;;;;11.47;9.97;;;;;;;;;;5076796;28;20472;-61
2020/12/19 13:46:56;;;;;;;10.37;8.70;;;;;;;;;;5063117;28;20363;-61
2020/12/19 13:49:21;;;;;;;10.67;9.10;;;;;;;;;;5068774;28;20222;-60
2020/12/19 13:51:47;;;;;;;11.43;8.63;;;;;;;;;;5070168;28;20446;-61
2020/12/19 13:54:12;;;;;;;11.40;8.60;;;;;;;;;;5063967;28;20248;-61
2020/12/19 13:56:40;;;;;;;10.63;9.03;;;;;;;;;;5063646;28;20647;-61
2020/12/19 13:59:09;;;;;;;10.50;9.03;;;;;;;;;;5069552;28;20217;-61
2020/12/19 14:01:38;;;;;;;10.27;9.17;;;;;;;;;;5062030;28;20979;-61
2020/12/19 14:04:04;;;;;;;13.03;10.90;;;;;;;;;;5071747;28;20451;-61
2020/12/19 14:06:30;;;;;;;9.90;8.90;;;;;;;;;;5058083;28;20912;-61
2020/12/19 14:08:56;;;;;;;10.27;9.17;;;;;;;;;;5069604;28;20228;-61
2020/12/19 14:11:28;;;;;;;10.40;9.20;;;;;;;;;;5064567;28;20925;-62
2020/12/19 14:13:54;;;;;;;10.50;9.30;;;;;;;;;;5069659;28;20295;-61
2020/12/19 14:16:27;;;;;;;11.57;9.67;;;;;;;;;;5068459;28;20832;-60